Mackenzie Airport
CYZY : now visible

Airfield :











YOU CAN JOIN US ON...

 
LOGIN :

Register | Disclaimer

   EN    FR    IT 

 









Legend :    VFR   Marginal VFR   IFR   Intensive IFR   Very Intensive IFR
Visi :
Ceiling :
>= 8 km
>= 3000ft
5 to 8 km
1000 to 3000 ft
1500m to 5 km
500 to 1000 ft
800 to 1500m
200 to 500 ft
< 800m
< 200 ft
Symbols :   Thunderstorms  Fog  Heavy snow  Heavy precipitations  Wind > 20 kt






- Airport Elevation : 2264 ft
- IATA code : YZY


CYZY - Mackenzie

CURRENT METAR :
  • 260811Z AUTO 14003KT 9SM BKN026 M05/M06 A2986 RMK SLP149

EXPIRED METARs :
  • 260756Z AUTO 16003KT 1 1/4SM BR FEW026 M05/M06 A2987 RMK SLP152
  • 260744Z AUTO 18004KT 180V250 6SM BR CLR M04/M05 A2986 RMK SLP150
  • 260731Z AUTO 17003KT 1 1/4SM BR CLR M05/M06 A2986 RMK VIS VRB 1/2-3 SLP148
  • 260725Z AUTO 15004KT 4SM BR CLR M06/M07 A2986 RMK SLP148
  • 260704Z AUTO 16005KT 1 1/4SM BR CLR M05/M06 A2986 RMK SLP151
  • 260648Z AUTO 16005KT 1 1/4SM BR CLR M05/M05 A2987 RMK ICG INTMT SLP152
  • 260629Z AUTO 17004KT 9SM CLR M03/M04 A2987 RMK ICG SLP153
  • 260619Z AUTO 18005KT 5SM BR CLR M05/M06 A2987 RMK SLP155
  • 260600Z AUTO 18004KT 9SM CLR M03/M04 A2987 RMK SLP153

TAF AMD TAF CYZY
Valid from the 26 at 07:00 until the 26 at 09:00 UTC


260738Z 2607/2609 VRB03KT 6SM BR FEW002
TEMPO 2607/2609 1/2SM FZFG VV002 RMK FCST BASED ON AUTO OBS. NXT FCST WILL BE ISSUED AT 261445Z



MET'MAP, your aeronautical weather chart ! - Copyright ORBIFLY December 2007 - Disclaimer

ORBIFLY MET'MAP TEAM :

Programming & Development : Alexandra Zaïnal
Concept & original design : Baudouin d'Aumeries
Assistance for programming : Marc-Olivier Méhu
Technical & hardware support : Manuel Goepfert

Contact : metmap@orbifly.com




SOURCES & CREDITS :

   NOAA       Earth
Advisory